sensor_id;sensor_type;location;lat;lon;timestamp;P1;durP1;ratioP1;P2;durP2;ratioP2
60100;SDS011;45978;53.646;55.930;2022-12-07T00:00:31;86.38;;;22.30;;
60100;SDS011;45978;53.646;55.930;2022-12-07T00:01:37;86.18;;;24.00;;
60100;SDS011;45978;53.646;55.930;2022-12-07T00:02:39;69.07;;;22.02;;
60100;SDS011;45978;53.646;55.930;2022-12-07T00:03:42;83.28;;;23.88;;
60100;SDS011;45978;53.646;55.930;2022-12-07T00:04:45;76.60;;;22.10;;
60100;SDS011;45978;53.646;55.930;2022-12-07T00:05:46;80.38;;;22.63;;
60100;SDS011;45978;53.646;55.930;2022-12-07T00:06:50;81.90;;;23.25;;
60100;SDS011;45978;53.646;55.930;2022-12-07T00:07:53;71.43;;;21.35;;
60100;SDS011;45978;53.646;55.930;2022-12-07T00:08:54;70.00;;;19.85;;
60100;SDS011;45978;53.646;55.930;2022-12-07T00:09:56;83.10;;;20.48;;
60100;SDS011;45978;53.646;55.930;2022-12-07T00:11:00;79.63;;;20.95;;
60100;SDS011;45978;53.646;55.930;2022-12-07T00:12:06;68.53;;;18.63;;
60100;SDS011;45978;53.646;55.930;2022-12-07T00:13:07;58.25;;;16.75;;
60100;SDS011;45978;53.646;55.930;2022-12-07T00:14:10;62.20;;;17.45;;
60100;SDS011;45978;53.646;55.930;2022-12-07T00:15:14;57.55;;;15.85;;
60100;SDS011;45978;53.646;55.930;2022-12-07T00:16:16;66.78;;;17.35;;
60100;SDS011;45978;53.646;55.930;2022-12-07T00:17:20;82.43;;;19.15;;
60100;SDS011;45978;53.646;55.930;2022-12-07T00:18:21;61.58;;;17.90;;
60100;SDS011;45978;53.646;55.930;2022-12-07T00:19:22;70.40;;;18.98;;
60100;SDS011;45978;53.646;55.930;2022-12-07T00:20:24;56.70;;;17.75;;
60100;SDS011;45978;53.646;55.930;2022-12-07T00:21:28;60.70;;;18.30;;
60100;SDS011;45978;53.646;55.930;2022-12-07T00:22:34;62.97;;;18.02;;
60100;SDS011;45978;53.646;55.930;2022-12-07T00:23:35;50.45;;;17.23;;
60100;SDS011;45978;53.646;55.930;2022-12-07T00:24:38;56.25;;;18.25;;
60100;SDS011;45978;53.646;55.930;2022-12-07T00:25:39;58.95;;;18.25;;
60100;SDS011;45978;53.646;55.930;2022-12-07T00:26:40;52.70;;;17.10;;
60100;SDS011;45978;53.646;55.930;2022-12-07T00:27:42;62.63;;;17.83;;
60100;SDS011;45978;53.646;55.930;2022-12-07T00:28:53;62.22;;;17.83;;
60100;SDS011;45978;53.646;55.930;2022-12-07T00:29:59;57.65;;;17.60;;
60100;SDS011;45978;53.646;55.930;2022-12-07T00:31:02;55.78;;;16.33;;
60100;SDS011;45978;53.646;55.930;2022-12-07T00:32:07;53.30;;;17.25;;
60100;SDS011;45978;53.646;55.930;2022-12-07T00:33:09;57.88;;;15.68;;
60100;SDS011;45978;53.646;55.930;2022-12-07T00:34:12;60.22;;;17.13;;
60100;SDS011;45978;53.646;55.930;2022-12-07T00:35:15;54.30;;;17.42;;
60100;SDS011;45978;53.646;55.930;2022-12-07T00:36:18;49.75;;;15.55;;
60100;SDS011;45978;53.646;55.930;2022-12-07T00:37:21;58.22;;;16.70;;
60100;SDS011;45978;53.646;55.930;2022-12-07T00:38:22;52.85;;;16.80;;
60100;SDS011;45978;53.646;55.930;2022-12-07T00:39:23;53.60;;;16.52;;
60100;SDS011;45978;53.646;55.930;2022-12-07T00:40:25;51.33;;;14.35;;
60100;SDS011;45978;53.646;55.930;2022-12-07T00:41:28;51.13;;;15.18;;
60100;SDS011;45978;53.646;55.930;2022-12-07T00:42:30;47.35;;;15.13;;
60100;SDS011;45978;53.646;55.930;2022-12-07T00:43:31;50.65;;;15.50;;
60100;SDS011;45978;53.646;55.930;2022-12-07T00:44:32;44.55;;;15.98;;
60100;SDS011;45978;53.646;55.930;2022-12-07T00:45:33;47.78;;;15.43;;
60100;SDS011;45978;53.646;55.930;2022-12-07T00:46:35;43.17;;;14.52;;
60100;SDS011;45978;53.646;55.930;2022-12-07T00:47:36;43.95;;;14.20;;
60100;SDS011;45978;53.646;55.930;2022-12-07T00:48:39;35.70;;;13.25;;
60100;SDS011;45978;53.646;55.930;2022-12-07T00:49:41;42.25;;;14.57;;
60100;SDS011;45978;53.646;55.930;2022-12-07T00:50:42;40.10;;;13.77;;
60100;SDS011;45978;53.646;55.930;2022-12-07T00:51:43;53.17;;;16.55;;
60100;SDS011;45978;53.646;55.930;2022-12-07T00:52:45;45.83;;;14.60;;
60100;SDS011;45978;53.646;55.930;2022-12-07T00:53:47;50.47;;;14.65;;
60100;SDS011;45978;53.646;55.930;2022-12-07T00:54:50;39.50;;;15.25;;
60100;SDS011;45978;53.646;55.930;2022-12-07T00:55:51;42.95;;;14.38;;
60100;SDS011;45978;53.646;55.930;2022-12-07T00:56:53;42.58;;;13.93;;
60100;SDS011;45978;53.646;55.930;2022-12-07T00:57:54;52.03;;;13.75;;
60100;SDS011;45978;53.646;55.930;2022-12-07T00:59:58;52.10;;;14.70;;
60100;SDS011;45978;53.646;55.930;2022-12-07T01:01:01;48.30;;;14.55;;
60100;SDS011;45978;53.646;55.930;2022-12-07T01:02:03;55.15;;;15.57;;
60100;SDS011;45978;53.646;55.930;2022-12-07T01:03:05;50.30;;;14.88;;
60100;SDS011;45978;53.646;55.930;2022-12-07T01:04:08;56.47;;;15.57;;
60100;SDS011;45978;53.646;55.930;2022-12-07T01:05:09;53.80;;;15.35;;
60100;SDS011;45978;53.646;55.930;2022-12-07T01:06:13;44.00;;;15.18;;
60100;SDS011;45978;53.646;55.930;2022-12-07T01:07:16;52.25;;;14.63;;
60100;SDS011;45978;53.646;55.930;2022-12-07T01:08:17;40.50;;;13.57;;
60100;SDS011;45978;53.646;55.930;2022-12-07T01:09:21;41.13;;;14.07;;
60100;SDS011;45978;53.646;55.930;2022-12-07T01:10:23;43.53;;;14.50;;
60100;SDS011;45978;53.646;55.930;2022-12-07T01:11:26;42.15;;;13.88;;
60100;SDS011;45978;53.646;55.930;2022-12-07T01:12:28;54.47;;;14.40;;
60100;SDS011;45978;53.646;55.930;2022-12-07T01:13:31;46.15;;;13.43;;
60100;SDS011;45978;53.646;55.930;2022-12-07T01:14:32;45.38;;;15.38;;
60100;SDS011;45978;53.646;55.930;2022-12-07T01:15:34;54.80;;;16.40;;
60100;SDS011;45978;53.646;55.930;2022-12-07T01:16:35;53.15;;;16.08;;
60100;SDS011;45978;53.646;55.930;2022-12-07T01:17:36;40.72;;;14.75;;
60100;SDS011;45978;53.646;55.930;2022-12-07T01:18:39;46.00;;;15.55;;
60100;SDS011;45978;53.646;55.930;2022-12-07T01:19:41;60.97;;;15.57;;
60100;SDS011;45978;53.646;55.930;2022-12-07T01:20:42;54.10;;;16.35;;
60100;SDS011;45978;53.646;55.930;2022-12-07T01:21:43;43.28;;;14.60;;
60100;SDS011;45978;53.646;55.930;2022-12-07T01:22:45;46.20;;;15.50;;
60100;SDS011;45978;53.646;55.930;2022-12-07T01:23:46;46.65;;;15.25;;
60100;SDS011;45978;53.646;55.930;2022-12-07T01:24:48;46.75;;;15.57;;
60100;SDS011;45978;53.646;55.930;2022-12-07T01:25:59;53.15;;;16.20;;
60100;SDS011;45978;53.646;55.930;2022-12-07T01:27:01;53.55;;;15.40;;
60100;SDS011;45978;53.646;55.930;2022-12-07T01:28:03;59.95;;;15.07;;
60100;SDS011;45978;53.646;55.930;2022-12-07T01:29:05;53.53;;;15.25;;
60100;SDS011;45978;53.646;55.930;2022-12-07T01:30:07;52.85;;;15.48;;
60100;SDS011;45978;53.646;55.930;2022-12-07T01:31:13;45.05;;;14.05;;
60100;SDS011;45978;53.646;55.930;2022-12-07T01:32:17;46.20;;;15.38;;
60100;SDS011;45978;53.646;55.930;2022-12-07T01:33:18;51.10;;;14.10;;
60100;SDS011;45978;53.646;55.930;2022-12-07T01:34:19;53.13;;;15.40;;
60100;SDS011;45978;53.646;55.930;2022-12-07T01:35:21;42.10;;;12.30;;
60100;SDS011;45978;53.646;55.930;2022-12-07T01:37:36;47.30;;;13.52;;
60100;SDS011;45978;53.646;55.930;2022-12-07T01:38:38;44.83;;;13.85;;
60100;SDS011;45978;53.646;55.930;2022-12-07T01:39:40;50.35;;;14.93;;
60100;SDS011;45978;53.646;55.930;2022-12-07T01:40:42;56.38;;;16.95;;
60100;SDS011;45978;53.646;55.930;2022-12-07T01:41:44;54.78;;;15.88;;
60100;SDS011;45978;53.646;55.930;2022-12-07T01:42:45;62.55;;;19.02;;
60100;SDS011;45978;53.646;55.930;2022-12-07T01:45:36;43.80;;;14.60;;
60100;SDS011;45978;53.646;55.930;2022-12-07T01:46:39;58.78;;;15.40;;
60100;SDS011;45978;53.646;55.930;2022-12-07T01:47:42;55.67;;;17.55;;
60100;SDS011;45978;53.646;55.930;2022-12-07T01:48:46;51.45;;;14.88;;
60100;SDS011;45978;53.646;55.930;2022-12-07T01:49:48;48.70;;;16.13;;
60100;SDS011;45978;53.646;55.930;2022-12-07T01:50:50;51.67;;;16.45;;
60100;SDS011;45978;53.646;55.930;2022-12-07T01:51:58;40.10;;;13.73;;
60100;SDS011;45978;53.646;55.930;2022-12-07T01:53:08;46.80;;;15.85;;
60100;SDS011;45978;53.646;55.930;2022-12-07T01:54:11;54.88;;;16.30;;
60100;SDS011;45978;53.646;55.930;2022-12-07T01:55:16;60.40;;;17.45;;
60100;SDS011;45978;53.646;55.930;2022-12-07T01:56:18;46.13;;;17.38;;
60100;SDS011;45978;53.646;55.930;2022-12-07T01:57:24;43.25;;;15.20;;
60100;SDS011;45978;53.646;55.930;2022-12-07T01:58:25;38.88;;;14.95;;
60100;SDS011;45978;53.646;55.930;2022-12-07T01:59:27;46.72;;;16.20;;
60100;SDS011;45978;53.646;55.930;2022-12-07T02:00:28;52.45;;;17.23;;
60100;SDS011;45978;53.646;55.930;2022-12-07T02:01:29;41.10;;;15.27;;
60100;SDS011;45978;53.646;55.930;2022-12-07T02:02:32;48.97;;;17.40;;
60100;SDS011;45978;53.646;55.930;2022-12-07T02:03:38;46.40;;;17.25;;
60100;SDS011;45978;53.646;55.930;2022-12-07T02:04:41;55.47;;;17.98;;
60100;SDS011;45978;53.646;55.930;2022-12-07T02:05:44;42.75;;;16.70;;
60100;SDS011;45978;53.646;55.930;2022-12-07T02:06:47;42.35;;;16.63;;
60100;SDS011;45978;53.646;55.930;2022-12-07T02:07:49;45.95;;;17.40;;
60100;SDS011;45978;53.646;55.930;2022-12-07T02:08:53;49.30;;;17.23;;
60100;SDS011;45978;53.646;55.930;2022-12-07T02:09:55;49.47;;;17.10;;
60100;SDS011;45978;53.646;55.930;2022-12-07T02:10:56;38.55;;;15.85;;
60100;SDS011;45978;53.646;55.930;2022-12-07T02:11:59;43.47;;;17.30;;
60100;SDS011;45978;53.646;55.930;2022-12-07T02:13:02;51.13;;;17.13;;
60100;SDS011;45978;53.646;55.930;2022-12-07T02:14:13;55.00;;;20.58;;
60100;SDS011;45978;53.646;55.930;2022-12-07T02:15:14;55.17;;;20.77;;
60100;SDS011;45978;53.646;55.930;2022-12-07T02:16:27;45.13;;;17.20;;
60100;SDS011;45978;53.646;55.930;2022-12-07T02:19:18;51.97;;;17.50;;
60100;SDS011;45978;53.646;55.930;2022-12-07T02:20:40;37.28;;;15.77;;
60100;SDS011;45978;53.646;55.930;2022-12-07T02:23:35;49.67;;;17.48;;
60100;SDS011;45978;53.646;55.930;2022-12-07T02:24:45;50.17;;;19.35;;
60100;SDS011;45978;53.646;55.930;2022-12-07T02:26:19;44.00;;;17.42;;
60100;SDS011;45978;53.646;55.930;2022-12-07T02:27:50;42.45;;;16.15;;
60100;SDS011;45978;53.646;55.930;2022-12-07T02:30:26;55.30;;;18.48;;
60100;SDS011;45978;53.646;55.930;2022-12-07T02:31:32;44.92;;;17.35;;
60100;SDS011;45978;53.646;55.930;2022-12-07T02:34:07;54.08;;;18.90;;
60100;SDS011;45978;53.646;55.930;2022-12-07T02:36:29;48.28;;;18.70;;
60100;SDS011;45978;53.646;55.930;2022-12-07T02:40:02;58.28;;;18.92;;
60100;SDS011;45978;53.646;55.930;2022-12-07T02:40:55;49.50;;;17.90;;
60100;SDS011;45978;53.646;55.930;2022-12-07T02:42:10;49.50;;;17.60;;
60100;SDS011;45978;53.646;55.930;2022-12-07T02:43:25;54.95;;;20.20;;
60100;SDS011;45978;53.646;55.930;2022-12-07T02:44:29;59.58;;;20.05;;
60100;SDS011;45978;53.646;55.930;2022-12-07T02:45:34;83.22;;;28.55;;
60100;SDS011;45978;53.646;55.930;2022-12-07T02:46:43;90.28;;;29.48;;
60100;SDS011;45978;53.646;55.930;2022-12-07T02:47:50;113.10;;;33.03;;
60100;SDS011;45978;53.646;55.930;2022-12-07T02:48:55;99.72;;;33.03;;
60100;SDS011;45978;53.646;55.930;2022-12-07T02:50:02;116.18;;;36.95;;
60100;SDS011;45978;53.646;55.930;2022-12-07T02:51:08;115.97;;;38.67;;
60100;SDS011;45978;53.646;55.930;2022-12-07T02:52:09;89.50;;;32.88;;
60100;SDS011;45978;53.646;55.930;2022-12-07T02:54:35;73.13;;;25.88;;
60100;SDS011;45978;53.646;55.930;2022-12-07T02:55:38;103.35;;;37.28;;
60100;SDS011;45978;53.646;55.930;2022-12-07T02:56:53;106.78;;;37.90;;
60100;SDS011;45978;53.646;55.930;2022-12-07T03:01:15;113.05;;;36.72;;
60100;SDS011;45978;53.646;55.930;2022-12-07T03:03:44;86.50;;;31.08;;
60100;SDS011;45978;53.646;55.930;2022-12-07T03:06:40;93.43;;;32.05;;
60100;SDS011;45978;53.646;55.930;2022-12-07T03:10:19;74.25;;;27.73;;
60100;SDS011;45978;53.646;55.930;2022-12-07T03:11:48;58.95;;;20.98;;
60100;SDS011;45978;53.646;55.930;2022-12-07T03:14:17;55.65;;;19.25;;
60100;SDS011;45978;53.646;55.930;2022-12-07T03:15:32;52.38;;;18.70;;
60100;SDS011;45978;53.646;55.930;2022-12-07T03:16:35;46.72;;;19.20;;
60100;SDS011;45978;53.646;55.930;2022-12-07T03:17:43;50.88;;;20.05;;
60100;SDS011;45978;53.646;55.930;2022-12-07T03:18:51;67.68;;;20.50;;
60100;SDS011;45978;53.646;55.930;2022-12-07T03:20:04;49.95;;;18.33;;
60100;SDS011;45978;53.646;55.930;2022-12-07T03:21:10;54.50;;;21.30;;
60100;SDS011;45978;53.646;55.930;2022-12-07T03:22:15;54.58;;;19.77;;
60100;SDS011;45978;53.646;55.930;2022-12-07T03:23:18;65.88;;;20.90;;
60100;SDS011;45978;53.646;55.930;2022-12-07T03:24:22;67.75;;;22.00;;
60100;SDS011;45978;53.646;55.930;2022-12-07T03:25:28;66.55;;;21.05;;
60100;SDS011;45978;53.646;55.930;2022-12-07T03:26:41;70.85;;;22.70;;
60100;SDS011;45978;53.646;55.930;2022-12-07T03:27:52;64.40;;;22.63;;
60100;SDS011;45978;53.646;55.930;2022-12-07T03:29:00;73.55;;;23.55;;
60100;SDS011;45978;53.646;55.930;2022-12-07T03:31:38;62.00;;;23.35;;
60100;SDS011;45978;53.646;55.930;2022-12-07T03:34:32;61.67;;;18.33;;
60100;SDS011;45978;53.646;55.930;2022-12-07T03:35:39;72.00;;;22.90;;
60100;SDS011;45978;53.646;55.930;2022-12-07T03:36:55;77.65;;;24.27;;
60100;SDS011;45978;53.646;55.930;2022-12-07T03:38:18;81.85;;;26.33;;
60100;SDS011;45978;53.646;55.930;2022-12-07T03:39:24;79.90;;;29.63;;
60100;SDS011;45978;53.646;55.930;2022-12-07T03:40:59;87.05;;;28.73;;
60100;SDS011;45978;53.646;55.930;2022-12-07T03:42:05;74.18;;;25.77;;
60100;SDS011;45978;53.646;55.930;2022-12-07T03:43:11;77.78;;;27.20;;
60100;SDS011;45978;53.646;55.930;2022-12-07T03:44:13;89.32;;;32.42;;
60100;SDS011;45978;53.646;55.930;2022-12-07T03:45:16;87.30;;;29.80;;
60100;SDS011;45978;53.646;55.930;2022-12-07T03:48:59;72.47;;;26.38;;
60100;SDS011;45978;53.646;55.930;2022-12-07T03:50:30;71.05;;;26.17;;
60100;SDS011;45978;53.646;55.930;2022-12-07T03:51:54;70.13;;;25.20;;
60100;SDS011;45978;53.646;55.930;2022-12-07T03:53:24;71.47;;;26.52;;
60100;SDS011;45978;53.646;55.930;2022-12-07T03:54:42;79.80;;;29.00;;
60100;SDS011;45978;53.646;55.930;2022-12-07T03:55:48;90.57;;;29.73;;
60100;SDS011;45978;53.646;55.930;2022-12-07T03:56:51;91.80;;;32.88;;
60100;SDS011;45978;53.646;55.930;2022-12-07T03:57:55;96.82;;;31.35;;
60100;SDS011;45978;53.646;55.930;2022-12-07T03:59:00;90.78;;;30.90;;
60100;SDS011;45978;53.646;55.930;2022-12-07T04:00:03;100.40;;;34.78;;
60100;SDS011;45978;53.646;55.930;2022-12-07T04:01:12;94.45;;;34.38;;
60100;SDS011;45978;53.646;55.930;2022-12-07T04:02:14;101.50;;;36.17;;
60100;SDS011;45978;53.646;55.930;2022-12-07T04:03:16;100.72;;;33.55;;
60100;SDS011;45978;53.646;55.930;2022-12-07T04:04:17;95.75;;;33.65;;
60100;SDS011;45978;53.646;55.930;2022-12-07T04:05:19;118.10;;;37.40;;
60100;SDS011;45978;53.646;55.930;2022-12-07T04:06:21;96.93;;;34.25;;
60100;SDS011;45978;53.646;55.930;2022-12-07T04:07:22;83.10;;;31.83;;
60100;SDS011;45978;53.646;55.930;2022-12-07T04:08:24;90.03;;;32.58;;
60100;SDS011;45978;53.646;55.930;2022-12-07T04:09:25;94.55;;;30.80;;
60100;SDS011;45978;53.646;55.930;2022-12-07T04:10:28;80.78;;;27.67;;
60100;SDS011;45978;53.646;55.930;2022-12-07T04:11:29;95.90;;;32.08;;
60100;SDS011;45978;53.646;55.930;2022-12-07T04:12:31;100.82;;;30.48;;
60100;SDS011;45978;53.646;55.930;2022-12-07T04:13:32;102.88;;;31.65;;
60100;SDS011;45978;53.646;55.930;2022-12-07T04:14:53;95.50;;;31.00;;
60100;SDS011;45978;53.646;55.930;2022-12-07T04:15:55;88.10;;;29.83;;
60100;SDS011;45978;53.646;55.930;2022-12-07T04:16:58;83.28;;;28.58;;
60100;SDS011;45978;53.646;55.930;2022-12-07T04:18:01;89.93;;;31.27;;
60100;SDS011;45978;53.646;55.930;2022-12-07T04:19:02;136.43;;;38.90;;
60100;SDS011;45978;53.646;55.930;2022-12-07T04:20:04;137.20;;;40.55;;
60100;SDS011;45978;53.646;55.930;2022-12-07T04:21:07;134.13;;;41.25;;
60100;SDS011;45978;53.646;55.930;2022-12-07T04:22:09;98.88;;;31.90;;
60100;SDS011;45978;53.646;55.930;2022-12-07T04:23:11;143.15;;;41.10;;
60100;SDS011;45978;53.646;55.930;2022-12-07T04:24:13;127.35;;;37.97;;
60100;SDS011;45978;53.646;55.930;2022-12-07T04:25:15;136.35;;;41.17;;
60100;SDS011;45978;53.646;55.930;2022-12-07T04:26:16;121.05;;;36.13;;
60100;SDS011;45978;53.646;55.930;2022-12-07T04:27:18;97.95;;;32.85;;
60100;SDS011;45978;53.646;55.930;2022-12-07T04:28:20;109.55;;;35.65;;
60100;SDS011;45978;53.646;55.930;2022-12-07T04:29:24;105.45;;;33.70;;
60100;SDS011;45978;53.646;55.930;2022-12-07T04:30:26;99.78;;;32.40;;
60100;SDS011;45978;53.646;55.930;2022-12-07T04:31:28;97.03;;;34.33;;
60100;SDS011;45978;53.646;55.930;2022-12-07T04:32:29;99.25;;;31.02;;
60100;SDS011;45978;53.646;55.930;2022-12-07T04:33:31;92.72;;;28.92;;
60100;SDS011;45978;53.646;55.930;2022-12-07T04:34:33;79.40;;;26.55;;
60100;SDS011;45978;53.646;55.930;2022-12-07T04:35:35;82.00;;;27.67;;
60100;SDS011;45978;53.646;55.930;2022-12-07T04:36:36;97.15;;;29.10;;
60100;SDS011;45978;53.646;55.930;2022-12-07T04:37:38;83.75;;;27.42;;
60100;SDS011;45978;53.646;55.930;2022-12-07T04:38:40;92.95;;;29.75;;
60100;SDS011;45978;53.646;55.930;2022-12-07T04:39:43;80.00;;;28.05;;
60100;SDS011;45978;53.646;55.930;2022-12-07T04:40:48;90.85;;;30.10;;
60100;SDS011;45978;53.646;55.930;2022-12-07T04:41:51;79.32;;;26.75;;
60100;SDS011;45978;53.646;55.930;2022-12-07T04:42:53;93.93;;;33.22;;
60100;SDS011;45978;53.646;55.930;2022-12-07T04:43:55;75.00;;;28.02;;
60100;SDS011;45978;53.646;55.930;2022-12-07T04:44:57;87.28;;;28.65;;
60100;SDS011;45978;53.646;55.930;2022-12-07T04:45:59;86.40;;;29.80;;
60100;SDS011;45978;53.646;55.930;2022-12-07T04:47:00;82.22;;;29.75;;
60100;SDS011;45978;53.646;55.930;2022-12-07T04:48:02;77.50;;;28.55;;
60100;SDS011;45978;53.646;55.930;2022-12-07T04:49:03;94.45;;;33.00;;
60100;SDS011;45978;53.646;55.930;2022-12-07T04:50:04;80.85;;;28.85;;
60100;SDS011;45978;53.646;55.930;2022-12-07T04:51:06;75.22;;;28.15;;
60100;SDS011;45978;53.646;55.930;2022-12-07T04:52:08;50.85;;;18.13;;
60100;SDS011;45978;53.646;55.930;2022-12-07T04:53:09;69.05;;;27.27;;
60100;SDS011;45978;53.646;55.930;2022-12-07T04:54:11;89.80;;;32.33;;
60100;SDS011;45978;53.646;55.930;2022-12-07T04:55:13;65.78;;;24.85;;
60100;SDS011;45978;53.646;55.930;2022-12-07T04:56:15;52.90;;;20.00;;
60100;SDS011;45978;53.646;55.930;2022-12-07T04:57:16;29.30;;;15.10;;
60100;SDS011;45978;53.646;55.930;2022-12-07T04:58:18;99.45;;;33.00;;
60100;SDS011;45978;53.646;55.930;2022-12-07T04:59:19;102.05;;;35.20;;
60100;SDS011;45978;53.646;55.930;2022-12-07T05:00:21;98.63;;;37.53;;
60100;SDS011;45978;53.646;55.930;2022-12-07T05:01:22;101.70;;;34.38;;
60100;SDS011;45978;53.646;55.930;2022-12-07T05:02:24;64.60;;;23.65;;
60100;SDS011;45978;53.646;55.930;2022-12-07T05:03:25;107.82;;;36.17;;
60100;SDS011;45978;53.646;55.930;2022-12-07T05:04:26;153.48;;;43.85;;
60100;SDS011;45978;53.646;55.930;2022-12-07T05:05:28;182.07;;;33.50;;
60100;SDS011;45978;53.646;55.930;2022-12-07T05:06:32;184.70;;;44.58;;
60100;SDS011;45978;53.646;55.930;2022-12-07T05:07:34;268.52;;;58.50;;
60100;SDS011;45978;53.646;55.930;2022-12-07T05:08:35;221.63;;;45.15;;
60100;SDS011;45978;53.646;55.930;2022-12-07T05:09:38;289.15;;;54.50;;
60100;SDS011;45978;53.646;55.930;2022-12-07T05:10:39;186.30;;;48.40;;
60100;SDS011;45978;53.646;55.930;2022-12-07T05:11:41;227.18;;;53.45;;
60100;SDS011;45978;53.646;55.930;2022-12-07T05:12:43;178.88;;;49.00;;
60100;SDS011;45978;53.646;55.930;2022-12-07T05:13:46;138.63;;;33.05;;
60100;SDS011;45978;53.646;55.930;2022-12-07T05:14:47;152.68;;;38.28;;
60100;SDS011;45978;53.646;55.930;2022-12-07T05:15:49;239.90;;;56.80;;
60100;SDS011;45978;53.646;55.930;2022-12-07T05:16:51;223.15;;;53.95;;
60100;SDS011;45978;53.646;55.930;2022-12-07T05:17:55;226.65;;;53.40;;
60100;SDS011;45978;53.646;55.930;2022-12-07T05:18:58;291.75;;;64.93;;
60100;SDS011;45978;53.646;55.930;2022-12-07T05:19:59;231.45;;;55.50;;
60100;SDS011;45978;53.646;55.930;2022-12-07T05:21:01;222.63;;;51.40;;
60100;SDS011;45978;53.646;55.930;2022-12-07T05:22:02;220.23;;;52.65;;
60100;SDS011;45978;53.646;55.930;2022-12-07T05:23:03;297.88;;;62.00;;
60100;SDS011;45978;53.646;55.930;2022-12-07T05:24:06;214.90;;;52.25;;
60100;SDS011;45978;53.646;55.930;2022-12-07T05:25:09;231.88;;;50.80;;
60100;SDS011;45978;53.646;55.930;2022-12-07T05:26:11;270.83;;;63.10;;
60100;SDS011;45978;53.646;55.930;2022-12-07T05:27:17;223.95;;;56.30;;
60100;SDS011;45978;53.646;55.930;2022-12-07T05:28:18;261.73;;;59.90;;
60100;SDS011;45978;53.646;55.930;2022-12-07T05:29:20;265.80;;;59.78;;
60100;SDS011;45978;53.646;55.930;2022-12-07T05:30:21;323.08;;;68.63;;
60100;SDS011;45978;53.646;55.930;2022-12-07T05:31:23;307.77;;;69.25;;
60100;SDS011;45978;53.646;55.930;2022-12-07T05:32:26;298.98;;;69.85;;
60100;SDS011;45978;53.646;55.930;2022-12-07T05:33:27;307.05;;;69.20;;
60100;SDS011;45978;53.646;55.930;2022-12-07T05:34:28;305.23;;;68.07;;
60100;SDS011;45978;53.646;55.930;2022-12-07T05:35:30;281.48;;;64.28;;
60100;SDS011;45978;53.646;55.930;2022-12-07T05:36:32;298.85;;;68.45;;
60100;SDS011;45978;53.646;55.930;2022-12-07T05:37:33;312.75;;;71.28;;
60100;SDS011;45978;53.646;55.930;2022-12-07T05:38:34;314.15;;;67.55;;
60100;SDS011;45978;53.646;55.930;2022-12-07T05:39:37;302.17;;;70.10;;
60100;SDS011;45978;53.646;55.930;2022-12-07T05:40:41;353.83;;;75.50;;
60100;SDS011;45978;53.646;55.930;2022-12-07T05:41:42;333.83;;;73.03;;
60100;SDS011;45978;53.646;55.930;2022-12-07T05:43:03;323.88;;;67.32;;
60100;SDS011;45978;53.646;55.930;2022-12-07T05:44:04;315.30;;;71.20;;
60100;SDS011;45978;53.646;55.930;2022-12-07T05:45:06;303.13;;;71.15;;
60100;SDS011;45978;53.646;55.930;2022-12-07T05:46:09;316.50;;;75.95;;
60100;SDS011;45978;53.646;55.930;2022-12-07T05:47:10;320.42;;;72.70;;
60100;SDS011;45978;53.646;55.930;2022-12-07T05:48:13;342.50;;;78.07;;
60100;SDS011;45978;53.646;55.930;2022-12-07T05:49:18;265.60;;;64.40;;
60100;SDS011;45978;53.646;55.930;2022-12-07T05:50:19;197.55;;;53.92;;
60100;SDS011;45978;53.646;55.930;2022-12-07T05:51:34;132.10;;;43.85;;
60100;SDS011;45978;53.646;55.930;2022-12-07T05:52:35;101.53;;;35.15;;
60100;SDS011;45978;53.646;55.930;2022-12-07T05:53:37;103.10;;;36.47;;
60100;SDS011;45978;53.646;55.930;2022-12-07T05:54:39;83.07;;;32.78;;
60100;SDS011;45978;53.646;55.930;2022-12-07T05:55:41;89.20;;;33.85;;
60100;SDS011;45978;53.646;55.930;2022-12-07T05:56:43;74.30;;;31.08;;
60100;SDS011;45978;53.646;55.930;2022-12-07T05:57:44;79.90;;;29.90;;
60100;SDS011;45978;53.646;55.930;2022-12-07T05:59:05;90.22;;;29.70;;
60100;SDS011;45978;53.646;55.930;2022-12-07T06:00:25;68.97;;;25.50;;
60100;SDS011;45978;53.646;55.930;2022-12-07T06:01:27;82.43;;;30.48;;
60100;SDS011;45978;53.646;55.930;2022-12-07T06:02:53;92.05;;;33.15;;
60100;SDS011;45978;53.646;55.930;2022-12-07T06:03:54;115.25;;;35.22;;
60100;SDS011;45978;53.646;55.930;2022-12-07T06:04:59;92.25;;;32.65;;
60100;SDS011;45978;53.646;55.930;2022-12-07T06:06:01;90.68;;;33.78;;
60100;SDS011;45978;53.646;55.930;2022-12-07T06:07:03;91.05;;;34.17;;
60100;SDS011;45978;53.646;55.930;2022-12-07T06:08:05;90.43;;;34.83;;
60100;SDS011;45978;53.646;55.930;2022-12-07T06:09:06;107.78;;;35.95;;
60100;SDS011;45978;53.646;55.930;2022-12-07T06:10:08;114.20;;;46.08;;
60100;SDS011;45978;53.646;55.930;2022-12-07T06:11:11;115.63;;;43.05;;
60100;SDS011;45978;53.646;55.930;2022-12-07T06:12:31;102.72;;;37.90;;
60100;SDS011;45978;53.646;55.930;2022-12-07T06:13:35;105.95;;;38.38;;
60100;SDS011;45978;53.646;55.930;2022-12-07T06:14:36;103.85;;;40.85;;
60100;SDS011;45978;53.646;55.930;2022-12-07T06:15:38;108.10;;;40.33;;
60100;SDS011;45978;53.646;55.930;2022-12-07T06:16:42;107.22;;;39.42;;
60100;SDS011;45978;53.646;55.930;2022-12-07T06:17:43;106.07;;;39.90;;
60100;SDS011;45978;53.646;55.930;2022-12-07T06:18:46;119.32;;;40.88;;
60100;SDS011;45978;53.646;55.930;2022-12-07T06:19:52;115.18;;;42.67;;
60100;SDS011;45978;53.646;55.930;2022-12-07T06:20:53;105.40;;;40.33;;
60100;SDS011;45978;53.646;55.930;2022-12-07T06:21:56;115.20;;;41.83;;
60100;SDS011;45978;53.646;55.930;2022-12-07T06:22:59;119.45;;;40.85;;
60100;SDS011;45978;53.646;55.930;2022-12-07T06:24:00;117.75;;;40.30;;
60100;SDS011;45978;53.646;55.930;2022-12-07T06:25:02;125.70;;;40.08;;
60100;SDS011;45978;53.646;55.930;2022-12-07T06:26:04;108.63;;;35.97;;
60100;SDS011;45978;53.646;55.930;2022-12-07T06:27:06;101.70;;;33.22;;
60100;SDS011;45978;53.646;55.930;2022-12-07T06:28:08;100.15;;;30.88;;
60100;SDS011;45978;53.646;55.930;2022-12-07T06:29:10;106.43;;;31.98;;
60100;SDS011;45978;53.646;55.930;2022-12-07T06:30:11;101.70;;;32.35;;
60100;SDS011;45978;53.646;55.930;2022-12-07T06:31:13;87.13;;;25.92;;
60100;SDS011;45978;53.646;55.930;2022-12-07T06:32:16;93.97;;;28.67;;
60100;SDS011;45978;53.646;55.930;2022-12-07T06:33:17;97.13;;;28.75;;
60100;SDS011;45978;53.646;55.930;2022-12-07T06:34:19;110.75;;;30.35;;
60100;SDS011;45978;53.646;55.930;2022-12-07T06:35:23;57.08;;;18.92;;
60100;SDS011;45978;53.646;55.930;2022-12-07T06:36:25;96.95;;;24.92;;
60100;SDS011;45978;53.646;55.930;2022-12-07T06:37:27;108.93;;;31.52;;
60100;SDS011;45978;53.646;55.930;2022-12-07T06:38:28;112.38;;;33.28;;
60100;SDS011;45978;53.646;55.930;2022-12-07T06:39:29;105.60;;;31.25;;
60100;SDS011;45978;53.646;55.930;2022-12-07T06:40:31;116.18;;;32.30;;